首页
METAR-TAF:

METAR-TAF

机场 :

Truckee-Tahoe Airport

Truckee, 加利福尼亚州, 美国

纬度: 39-19N, 经度: 120-08W, 海拔: 1798米

当前天气观测

该预报发布于39分钟前的18:50 UTC
风速4节,风向南转西南
温度 19°C
湿度 37%
气压 1016 hPa
能見度: 16.1公里
散云层高于5000英尺, 塔状积云.
散云层高于25000英尺

METAR: KTRK 071850Z 20004KT 10SM SCT050TCU SCT250 19/04 A3000 RMK TCU DSNT NW

时间: 12:29 (19:29 UTC)

预报

该预报发布于2小时和9分钟前的17:20 UTC
预报有效从07日的 18点(UTC)到 08日的 18点(UTC)
风速节,风向
能見度: 10公里
少量云层高于5000英尺
散云层高于20000英尺
从 07日的 1900点(UTC)
风速6节,风向多变
能見度: 10公里
散云层高于8000英尺
散云层高于14000英尺
附近有阵雨
短暂存在
从 07日的 21点(UTC)到 08日的 01点(UTC)
风速15节,风向多变,有时为25节阵风
散云层高于8000英尺, 积雨云.
散云层高于14000英尺
雷暴, 小雨
从 08日的 0100点(UTC)
风速8节,风向西
能見度: 10公里
散云层高于8000英尺, 积雨云.
多云层高于15000英尺
附近有雷暴
从 08日的 0600点(UTC)
风速节,风向
能見度: 10公里
少量云层高于6000英尺
多云层高于15000英尺

TAF: KTRK 071720Z 0718/0818 00000KT P6SM FEW050 SCT200 FM071900 VRB06KT P6SM VCSH SCT080 SCT140 TEMPO 0721/0801 VRB15G25KT -TSRA SCT080CB SCT140 FM080100 28008KT P6SM VCTS SCT080CB BKN150 FM080600 00000KT P6SM FEW060 BKN150

超过4000个机场的气象观测和天气预报(METAR&TAF报告)。

可查询的气象台以黄色和红色小点在地图上表示。

将鼠标移到小点上方,可查看气象台名称。

然后点击查看天气观测和预报。

如需切换地图:点击带黑十字的绿色按钮放大地图;点击带横线的绿色按钮缩小地图;或者点击绿色箭头查看邻近地区的地图。


METAR-TAF: